Latest Coastal Weather Observations for Cape Moreton

IDQ60701

Issued at 3:21 am EST Monday 2 May 2016 (issued every 10 minutes, with the page automatically refreshed every 10 minutes)

About coastal observations | Map of coastal stations | Coastal observations for QLD | Marine services | Other Formats
Station Details ID: 040043 Name: CAPE MORETON LIGHTHOUSE Lat: -27.03 Lon: 153.47 Height: 99.9 m
Data from the previous 72 hours. | See also: Recent months at Cape Moreton
Date/Time
EST
Temp

°C
Wind Pressure Rain
since 9am
mm
Weather Cloud Vis
km
Sea
Height
m
Swell
Dir
 
Speed
knots
Gust
knots
hPa Trend Height
m
Period
s
Dir
02/03:00am 21.5 WNW 7 8 1014.4 - 13.8 - - - - - - -
02/02:30am 21.5 NW 7 8 1014.4 - 13.8 - - - - - - -
02/02:00am 21.1 WNW 6 8 1014.6 - 13.8 - - - - - - -
02/01:30am 20.8 W 7 9 1015.4 - 13.8 - - - - - - -
02/01:00am 21.4 SSW 5 6 1015.5 - 13.8 - - - - - - -
02/12:30am 21.4 NE 2 4 1015.5 - 13.8 - - - - - - -
02/12:00am 21.3 S 5 7 1016.1 - 13.8 - - - - - - -
 
Date/Time
EST
Temp

°C
Wind Pressure Rain
since 9am
mm
Weather Cloud Vis
km
Sea
Height
m
Swell
Dir
 
Speed
knots
Gust
knots
hPa Trend Height
m
Period
s
Dir
01/11:30pm 21.1 SSW 8 9 1016.7 - 13.8 - - - - - - -
01/11:00pm 21.0 SW 8 10 1016.9 - 13.8 - - - - - - -
01/10:30pm 21.0 WSW 9 11 1017.1 - 13.8 - - - - - - -
01/10:00pm 21.2 WSW 9 11 1016.8 - 13.8 - - - - - - -
01/09:30pm 21.4 SW 8 9 1016.7 - 13.8 - - - - - - -
01/09:00pm 21.6 WSW 9 11 1016.9 - 13.8 - - - - - - -
01/08:30pm 22.0 W 3 5 1016.7 - 13.8 - - - - - - -
01/08:00pm 22.3 ESE 6 7 1016.6 - 13.8 - - - - - - -
01/07:30pm 22.3 ESE 8 10 1016.1 - 13.8 - - - - - - -
01/07:00pm 22.4 ESE 8 10 1016.0 - 13.8 - - - - - - -
01/06:30pm 22.3 SE 12 14 1015.8 - 13.8 - - - - - - -
01/06:00pm 21.9 SE 12 15 1015.6 - 13.8 - - - - - - -
01/05:30pm 22.2 SE 13 15 1015.4 - 13.8 - - - - - - -
01/05:00pm 22.1 SE 14 16 1015.5 - 13.8 - - - - - - -
01/04:30pm 21.6 S 15 19 1015.6 - 13.8 - - - - - - -
01/04:00pm 21.8 S 13 17 1015.5 - 13.8 - - - - - - -
01/03:30pm 21.6 SSW 11 15 1015.4 - 13.8 - - - - - - -
01/03:00pm 21.6 SSW 11 14 1015.2 - 13.8 Recent precip. - - - - - -
01/02:30pm 21.8 S 11 13 1015.0 - 13.8 - - - - - - -
01/02:00pm 22.2 S 6 9 1015.2 - 13.6 - - - - - - -
01/01:30pm 22.3 SSW 5 7 1015.3 - 13.2 - - - - - - -
01/01:00pm 22.1 SE 4 5 1015.8 - 11.8 - - - - - - -
01/12:30pm 22.1 NE 2 5 1016.1 - 10.6 - - - - - - -
01/12:00pm 21.8 NW 4 7 1016.6 - 7.4 Rain - - - - - -
01/11:30am 22.3 NNW 5 7 1017.1 - 4.0 - - - - - - -
01/11:00am 23.1 N 6 11 1017.7 - 0.2 - - - - - - -
01/10:30am 22.8 NNE 15 23 1018.0 - 0.0 - - - - - - -
01/10:00am 24.0 NE 10 14 1018.4 - 0.0 - - - - - - -
01/09:30am 24.0 NNE 12 15 1018.7 - 0.0 - - - - - - -
01/09:00am 23.9 NE 11 13 1018.8 - 4.2 - - - - - - -
01/08:30am 23.6 NE 13 16 1018.6 - 4.2 - - - - - - -
01/08:00am 22.8 NE 10 13 1018.4 - 4.2 - - - - - - -
01/07:30am 23.0 ENE 11 12 1018.4 - 4.2 - - - - - - -
01/07:00am 22.6 E 8 10 1018.3 - 4.2 - - - - - - -
01/06:30am 21.8 ESE 11 13 1017.9 - 4.2 - - - - - - -
01/06:00am 21.9 E 11 13 1017.7 - 4.2 Recent precip. - - - - - -
01/05:30am 21.9 E 16 19 1017.7 - 3.6 - - - - - - -
01/05:14am 22.1 E 15 24 1017.4 - 3.4 - - - - - - -
01/05:00am 22.0 E 12 13 1017.4 - 3.4 - - - - - - -
01/04:30am 21.8 E 11 13 1017.4 - 3.4 - - - - - - -
01/04:00am 21.6 ESE 12 15 1017.5 - 3.4 - - - - - - -
01/03:30am 21.4 ESE 14 17 1017.6 - 3.4 - - - - - - -
01/03:00am 21.4 ESE 14 18 1017.7 - 3.4 Recent precip. - - - - - -
01/02:30am 20.9 ENE 11 14 1018.2 - 3.2 - - - - - - -
01/02:00am 21.4 ENE 18 23 1018.2 - 2.6 - - - - - - -
01/01:30am 22.0 E 13 18 1018.3 - 2.4 - - - - - - -
01/01:00am 22.1 ENE 7 9 1018.8 - 1.8 - - - - - - -
01/12:30am 21.5 NE 14 18 1018.9 - 1.4 - - - - - - -
01/12:00am 22.6 ENE 14 19 1018.9 - 1.4 Recent precip. - - - - - -
 
Date/Time
EST
Temp

°C
Wind Pressure Rain
since 9am
mm
Weather Cloud Vis
km
Sea
Height
m
Swell
Dir
 
Speed
knots
Gust
knots
hPa Trend Height
m
Period
s
Dir
30/11:30pm 22.4 E 9 10 1019.1 - 1.2 - - - - - - -
30/11:00pm 22.0 E 12 16 1019.3 - 1.2 - - - - - - -
30/10:30pm 21.7 ENE 15 18 1019.4 - 1.2 - - - - - - -
30/10:00pm 21.8 E 10 12 1019.7 - 1.2 - - - - - - -
30/09:30pm 21.7 ENE 13 15 1020.0 - 1.2 - - - - - - -
30/09:00pm 21.0 ENE 17 20 1019.9 - 0.8 Rain - - - - - -
30/08:30pm 22.0 ENE 17 19 1019.9 - 0.0 - - - - - - -
30/08:00pm 22.7 ENE 15 16 1019.6 - 0.0 - - - - - - -
30/07:30pm 22.4 ENE 18 21 1019.4 - 0.0 - - - - - - -
30/07:00pm 22.8 ENE 15 17 1019.1 - 0.0 - - - - - - -
30/06:30pm 22.6 ENE 18 22 1018.9 - 0.0 - - - - - - -
30/06:00pm 23.4 ENE 15 16 1018.9 - 0.0 - - - - - - -
30/05:30pm 23.5 ENE 14 16 1018.6 - 0.0 - - - - - - -
30/05:00pm 23.8 ENE 15 16 1018.6 - 0.0 - - - - - - -
30/04:30pm 24.0 E 14 15 1018.4 - 0.0 - - - - - - -
30/04:00pm 24.4 E 13 15 1018.2 - 0.0 - - - - - - -
30/03:30pm 24.9 E 13 15 1018.2 - 0.0 - - - - - - -
30/03:00pm 25.7 E 12 13 1018.2 - 0.0 - - - - - - -
30/02:30pm 26.0 E 11 13 1018.2 - 0.0 - - - - - - -
30/02:00pm 26.0 E 12 13 1018.2 - 0.0 - - - - - - -
30/01:30pm 26.1 E 12 13 1018.4 - 0.0 - - - - - - -
30/01:00pm 26.3 E 11 13 1018.7 - 0.0 - - - - - - -
30/12:30pm 26.9 ENE 11 13 1019.2 - 0.0 - - - - - - -
30/12:00pm 25.8 E 11 12 1019.6 - 0.0 - - - - - - -
30/11:30am 27.7 E 11 12 1020.3 - 0.0 - - - - - - -
30/11:00am 26.7 E 11 13 1020.7 - 0.0 - - - - - - -
30/10:30am 26.0 E 10 12 1020.9 - 0.0 - - - - - - -
30/10:00am 27.1 E 9 11 1021.3 - 0.0 - - - - - - -
30/09:30am 26.1 E 10 11 1021.5 - 0.0 - - - - - - -
30/09:00am 26.0 E 11 13 1021.4 - 0.0 - - - - - - -
30/08:30am 25.0 ENE 11 13 1021.3 - 0.0 - - - - - - -
30/08:00am 25.6 ENE 10 11 1021.3 - 0.0 - - - - - - -
30/07:30am 25.1 ENE 10 11 1020.9 - 0.0 - - - - - - -
30/07:00am 23.4 ENE 11 12 1020.8 - 0.0 - - - - - - -
30/06:30am 23.2 ENE 11 14 1020.6 - 0.0 - - - - - - -
30/06:00am 23.0 ENE 10 13 1020.1 - 0.0 - - - - - - -
30/05:30am 23.1 E 11 13 1019.9 - 0.0 - - - - - - -
30/05:00am 23.1 ENE 12 13 1019.8 - 0.0 - - - - - - -
30/04:30am 22.8 E 12 13 1019.4 - 0.0 - - - - - - -
30/04:00am 23.0 E 13 15 1019.5 - 0.0 - - - - - - -
30/03:30am 23.3 E 13 15 1019.6 - 0.0 - - - - - - -
30/03:00am 23.0 E 12 14 1019.7 - 0.0 - - - - - - -
30/02:30am 23.0 E 13 15 1019.9 - 0.0 - - - - - - -
30/02:00am 23.1 ENE 13 16 1020.2 - 0.0 - - - - - - -
30/01:30am 23.0 E 15 17 1020.3 - 0.0 - - - - - - -
30/01:00am 23.0 E 14 16 1020.8 - 0.0 - - - - - - -
30/12:30am 23.1 E 15 17 1021.0 - 0.0 - - - - - - -
30/12:00am 23.1 E 14 16 1021.3 - 0.0 - - - - - - -
 
Date/Time
EST
Temp

°C
Wind Pressure Rain
since 9am
mm
Weather Cloud Vis
km
Sea
Height
m
Swell
Dir
 
Speed
knots
Gust
knots
hPa Trend Height
m
Period
s
Dir
29/11:30pm 23.0 ENE 15 19 1021.1 - 0.0 - - - - - - -
29/11:00pm 23.1 E 17 20 1021.5 - 0.0 - - - - - - -
29/10:30pm 23.1 E 17 19 1021.8 - 0.0 - - - - - - -
29/10:00pm 23.1 E 18 21 1021.8 - 0.0 - - - - - - -
29/09:30pm 23.1 E 16 20 1022.0 - 0.0 - - - - - - -
29/09:00pm 22.9 E 15 17 1021.8 - 0.0 - - - - - - -
29/08:30pm 23.1 E 17 19 1021.6 - 0.0 - - - - - - -
29/08:00pm 22.9 E 17 20 1021.7 - 0.0 - - - - - - -
29/07:30pm 23.1 E 16 18 1021.4 - 0.0 - - - - - - -
29/07:00pm 23.1 E 16 19 1021.0 - 0.0 - - - - - - -
29/06:30pm 23.0 E 15 19 1020.8 - 0.0 - - - - - - -
29/06:00pm 23.0 E 16 19 1020.6 - 0.0 - - - - - - -
29/05:30pm 23.0 E 16 19 1020.4 - 0.0 - - - - - - -
29/05:00pm 23.1 E 16 19 1020.1 - 0.0 - - - - - - -
29/04:30pm 23.8 E 16 19 1019.8 - 0.0 - - - - - - -
29/04:00pm 23.8 E 17 21 1019.7 - 0.0 - - - - - - -
29/03:30pm 24.0 E 18 20 1019.7 - 0.0 - - - - - - -
29/03:00pm 24.5 E 19 22 1019.7 - 0.0 - - - - - - -
29/02:30pm 24.8 E 17 21 1019.9 - 0.0 - - - - - - -
29/02:00pm 24.5 E 17 21 1019.9 - 0.0 - - - - - - -
29/01:30pm 24.7 E 18 21 1019.9 - 0.0 - - - - - - -
29/01:00pm 24.4 E 18 21 1020.1 - 0.0 - - - - - - -
29/12:30pm 25.0 E 18 22 1020.3 - 0.0 - - - - - - -
29/12:00pm 24.5 ESE 19 23 1020.8 - 0.0 - - - - - - -
29/11:30am 24.8 ESE 18 21 1021.7 - 0.0 - - - - - - -
29/11:00am 24.5 ESE 18 21 1022.4 - 0.0 - - - - - - -
29/10:30am 24.5 ESE 19 22 1022.9 - 0.0 - - - - - - -
29/10:00am 24.3 ESE 20 22 1023.0 - 0.0 - - - - - - -
29/09:30am 23.6 ESE 18 21 1023.1 - 0.0 - - - - - - -
29/09:00am 22.5 SE 12 15 1023.1 - 2.0 Recent precip. - - - - - -
29/08:30am 21.9 SE 16 19 1023.2 - 1.8 - - - - - - -
29/08:00am 21.2 SSE 15 19 1023.0 - 1.8 - - - - - - -
29/07:30am 21.1 SE 16 19 1022.8 - 1.8 - - - - - - -
29/07:00am 21.1 SE 16 19 1022.5 - 1.8 - - - - - - -
29/06:30am 20.9 SE 17 20 1022.3 - 1.8 - - - - - - -
29/06:00am 20.9 SE 16 19 1022.0 - 1.8 - - - - - - -
29/05:30am 20.8 ESE 13 16 1021.8 - 1.8 - - - - - - -
29/05:00am 20.6 ESE 15 18 1021.7 - 1.8 - - - - - - -
29/04:30am 21.0 ESE 13 15 1021.6 - 1.8 - - - - - - -
29/04:00am 20.9 ESE 15 17 1021.5 - 1.8 - - - - - - -
29/03:30am 21.4 ESE 16 21 1021.4 - 1.8 - - - - - - -

Other Formats:

Comma delimited format used in spreadsheet applications
http://www.bom.gov.au/fwo/IDQ60701/IDQ60701.94594.axf

JavaScript Object Notation format (JSON) in row-major order
http://www.bom.gov.au/fwo/IDQ60701/IDQ60701.94594.json